Terminal Aerodrome Forecast
Issued by NWS Buffalo, NY

Home | Current Version | Previous Version | Text Only | Print | Product List | Glossary On
Versions: 1 2 3 4 5 6 7 8 9 10 11 12 13 14 15 16 17 18 19 20 21 22 23 24 25 26 27
000
FTUS41 KBUF 151733
TAFROC
TAF
KROC 151733Z 1518/1618 21006KT P6SM OVC100
     FM152000 22007KT P6SM OVC050
     FM160100 22009KT 2SM -SN BKN050
     FM160300 23009KT P6SM BKN060
     FM160500 26010G16KT P6SM SCT070
     FM161700 30010G18KT P6SM BKN080=

USA.gov is the U.S. government's official web portal to all federal, state and local government web resources and services.